createdAt,value
2018-10-01T00:02:10.386Z,8.95
2018-10-01T00:04:39.282Z,8.15
2018-10-01T00:07:06.839Z,8.60
2018-10-01T00:12:01.021Z,8.30
2018-10-01T00:14:29.187Z,8.55
2018-10-01T00:16:56.540Z,8.95
2018-10-01T00:19:29.608Z,8.85
2018-10-01T00:22:02.425Z,11.20
2018-10-01T00:24:30.462Z,9.08
2018-10-01T00:26:57.871Z,9.28
2018-10-01T00:29:29.235Z,9.23
2018-10-01T00:32:01.011Z,10.05
2018-10-01T00:34:29.045Z,9.88
2018-10-01T00:36:56.382Z,8.85
2018-10-01T00:39:24.792Z,9.18
2018-10-01T00:41:52.101Z,8.78
2018-10-01T00:44:19.640Z,9.63
2018-10-01T00:46:47.078Z,8.80
2018-10-01T00:49:15.387Z,9.08
2018-10-01T00:51:42.740Z,8.95
2018-10-01T00:54:14.805Z,9.85
2018-10-01T00:59:09.896Z,9.43
2018-10-01T01:01:38.010Z,8.53
2018-10-01T01:04:06.768Z,8.63
2018-10-01T01:06:34.187Z,7.72
2018-10-01T01:09:02.305Z,7.80
2018-10-01T01:11:29.693Z,7.47
2018-10-01T01:13:57.451Z,7.53
2018-10-01T01:16:29.678Z,6.97
2018-10-01T01:18:57.134Z,7.70
2018-10-01T01:21:24.918Z,7.08
2018-10-01T01:23:52.301Z,6.97
2018-10-01T01:26:19.759Z,7.15
2018-10-01T01:28:47.076Z,7.70
2018-10-01T01:31:14.461Z,6.62
2018-10-01T01:33:41.824Z,7.05
2018-10-01T01:36:13.656Z,7.03
2018-10-01T01:38:41.862Z,6.72
2018-10-01T01:41:09.365Z,6.80
2018-10-01T01:43:36.739Z,6.40
2018-10-01T01:46:08.092Z,6.65
2018-10-01T01:48:35.435Z,7.03
2018-10-01T01:51:03.362Z,6.85
2018-10-01T01:53:37.716Z,7.17
2018-10-01T01:56:06.461Z,8.95
2018-10-01T01:58:34.069Z,7.65
2018-10-01T02:01:05.886Z,7.90
2018-10-01T02:03:38.939Z,8.15
2018-10-01T02:06:06.388Z,7.72
2018-10-01T02:08:33.834Z,8.23
2018-10-01T02:11:02.660Z,7.37
2018-10-01T02:13:34.746Z,8.43
2018-10-01T02:16:02.758Z,7.42
2018-10-01T02:18:30.196Z,8.18
2018-10-01T02:20:59.278Z,7.25
2018-10-01T02:25:53.763Z,6.42
2018-10-01T02:28:21.301Z,7.50
2018-10-01T02:30:49.349Z,7.62
2018-10-01T02:33:16.848Z,6.90
2018-10-01T02:35:44.711Z,7.83
2018-10-01T02:38:12.568Z,8.33
2018-10-01T02:40:39.910Z,7.55
2018-10-01T02:43:07.639Z,7.70
2018-10-01T02:45:35.338Z,7.08
2018-10-01T02:48:03.402Z,6.80
2018-10-01T02:50:30.748Z,7.50
2018-10-01T02:53:04.179Z,6.75
2018-10-01T02:55:31.589Z,8.90
2018-10-01T02:58:05.328Z,7.00
2018-10-01T03:00:34.084Z,7.50
2018-10-01T03:03:01.479Z,7.42
2018-10-01T03:05:29.693Z,7.45
2018-10-01T03:07:57.016Z,7.70
2018-10-01T03:10:24.490Z,8.53
2018-10-01T03:15:24.548Z,7.75
2018-10-01T03:17:53.440Z,7.40
2018-10-01T03:20:21.212Z,7.92
2018-10-01T03:22:50.706Z,7.50
2018-10-01T03:25:22.867Z,7.80
2018-10-01T03:27:50.636Z,7.75
2018-10-01T03:30:24.022Z,7.55
2018-10-01T03:32:51.328Z,7.00
2018-10-01T03:35:19.125Z,7.90
2018-10-01T03:37:51.042Z,7.83
2018-10-01T03:40:23.604Z,7.17
2018-10-01T03:42:51.604Z,7.20
2018-10-01T03:45:19.763Z,7.00
2018-10-01T03:47:47.129Z,8.25
2018-10-01T03:50:15.476Z,8.90
2018-10-01T03:52:43.558Z,6.50
2018-10-01T03:55:11.398Z,7.20
2018-10-01T03:57:40.858Z,7.10
2018-10-01T04:00:12.920Z,6.53
2018-10-01T04:02:40.465Z,6.10
2018-10-01T04:05:12.199Z,6.80
2018-10-01T04:07:40.146Z,7.12
2018-10-01T04:10:12.018Z,6.70
2018-10-01T04:12:40.333Z,6.87
2018-10-01T04:15:09.341Z,7.55
2018-10-01T04:17:36.814Z,7.28
2018-10-01T04:20:04.606Z,6.75
2018-10-01T04:22:44.175Z,7.60
2018-10-01T04:25:11.646Z,7.60
2018-10-01T04:27:39.221Z,7.20
2018-10-01T04:30:08.839Z,7.45
2018-10-01T04:32:37.134Z,7.87
2018-10-01T04:35:04.518Z,7.95
2018-10-01T04:37:32.505Z,6.90
2018-10-01T04:40:00.310Z,6.80
2018-10-01T04:42:28.345Z,7.05
2018-10-01T04:44:55.803Z,7.08
2018-10-01T04:47:23.867Z,8.53
2018-10-01T04:52:22.762Z,7.12
2018-10-01T04:54:50.254Z,7.35
2018-10-01T04:57:19.568Z,7.90
2018-10-01T04:59:48.124Z,6.42
2018-10-01T05:04:45.819Z,6.65
2018-10-01T05:07:13.125Z,6.53
2018-10-01T05:09:40.477Z,7.03
2018-10-01T05:12:08.769Z,6.60
2018-10-01T05:14:36.881Z,7.10
2018-10-01T05:17:04.349Z,6.53
2018-10-01T05:19:32.705Z,6.87
2018-10-01T05:22:04.055Z,6.55
2018-10-01T05:24:31.989Z,8.23
2018-10-01T05:26:59.367Z,7.08
2018-10-01T05:29:26.638Z,6.87
2018-10-01T05:31:54.318Z,6.70
2018-10-01T05:34:21.593Z,6.80
2018-10-01T05:39:21.303Z,7.12
2018-10-01T05:41:48.613Z,7.53
2018-10-01T05:44:15.927Z,6.05
2018-10-01T05:46:43.218Z,5.72
2018-10-01T05:49:10.638Z,5.45
2018-10-01T05:51:37.928Z,6.05
2018-10-01T05:54:05.320Z,5.42
2018-10-01T05:56:32.546Z,7.87
2018-10-01T05:59:00.229Z,6.75
2018-10-01T06:01:27.567Z,6.87
2018-10-01T06:03:54.959Z,5.58
2018-10-01T06:06:22.379Z,6.05
2018-10-01T06:08:49.704Z,5.75
2018-10-01T06:11:17.111Z,5.95
2018-10-01T06:13:44.893Z,6.97
2018-10-01T06:16:12.715Z,5.40
2018-10-01T06:18:40.098Z,6.33
2018-10-01T06:21:07.811Z,6.85
2018-10-01T06:23:35.139Z,5.42
2018-10-01T06:26:02.955Z,5.92
2018-10-01T06:28:30.334Z,5.00
2018-10-01T06:30:58.431Z,5.35
2018-10-01T06:33:25.737Z,5.33
2018-10-01T06:35:56.468Z,5.60
2018-10-01T06:38:23.817Z,4.90
2018-10-01T06:40:51.335Z,4.67
2018-10-01T06:43:18.672Z,5.35
2018-10-01T06:45:46.137Z,4.97
2018-10-01T06:48:13.548Z,4.65
2018-10-01T06:50:40.851Z,4.45
2018-10-01T06:53:08.585Z,5.28
2018-10-01T06:55:35.897Z,4.22
2018-10-01T06:58:06.904Z,5.35
2018-10-01T07:00:34.180Z,4.85
2018-10-01T07:03:01.479Z,4.42
2018-10-01T07:05:28.875Z,4.50
2018-10-01T07:07:56.279Z,5.00
2018-10-01T07:10:23.583Z,4.75
2018-10-01T07:12:51.043Z,4.50
2018-10-01T07:15:18.467Z,4.03
2018-10-01T07:17:45.843Z,5.10
2018-10-01T07:20:13.175Z,5.60
2018-10-01T07:22:40.599Z,5.30
2018-10-01T07:25:08.126Z,5.30
2018-10-01T07:27:35.427Z,5.25
2018-10-01T07:30:02.866Z,4.60
2018-10-01T07:32:30.230Z,4.65
2018-10-01T07:34:57.525Z,3.90
2018-10-01T07:37:24.923Z,3.98
2018-10-01T07:39:52.206Z,3.60
2018-10-01T07:44:51.225Z,2.83
2018-10-01T07:47:18.485Z,2.90
2018-10-01T07:49:45.841Z,3.00
2018-10-01T07:52:13.107Z,3.10
2018-10-01T07:54:40.454Z,2.37
2018-10-01T07:57:08.123Z,2.83
2018-10-01T07:59:35.392Z,2.25
2018-10-01T08:02:02.764Z,2.77
2018-10-01T08:04:30.047Z,2.35
2018-10-01T08:06:57.392Z,2.75
2018-10-01T08:09:24.862Z,2.40
2018-10-01T08:11:52.106Z,1.95
2018-10-01T08:14:19.407Z,2.08
2018-10-01T08:16:46.746Z,1.92
2018-10-01T08:19:14.263Z,2.70
2018-10-01T08:21:41.564Z,3.22
2018-10-01T08:24:08.856Z,2.20
2018-10-01T08:26:38.205Z,2.50
2018-10-01T08:29:05.514Z,2.95
2018-10-01T08:31:32.902Z,2.15
2018-10-01T08:34:00.270Z,4.05
2018-10-01T08:38:59.745Z,2.80
2018-10-01T08:41:27.103Z,2.30
2018-10-01T08:43:54.464Z,3.08
2018-10-01T08:46:21.793Z,2.37
2018-10-01T08:49:00.449Z,1.90
2018-10-01T08:51:34.472Z,2.00
2018-10-01T08:56:43.747Z,1.87
2018-10-01T08:59:11.233Z,2.10
2018-10-01T09:01:38.511Z,1.85
2018-10-01T09:04:05.810Z,1.85
2018-10-01T09:06:33.101Z,1.70
2018-10-01T09:09:00.454Z,1.52
2018-10-01T09:11:27.850Z,1.30
2018-10-01T09:13:55.268Z,1.62
2018-10-01T09:16:22.507Z,1.60
2018-10-01T09:18:49.840Z,1.30
2018-10-01T09:21:17.449Z,1.40
2018-10-01T09:23:49.827Z,1.60
2018-10-01T09:26:17.774Z,1.40
2018-10-01T09:28:45.047Z,1.85
2018-10-01T09:31:13.338Z,2.47
2018-10-01T09:33:40.637Z,1.57
2018-10-01T09:36:08.583Z,1.52
2018-10-01T09:38:35.895Z,1.52
2018-10-01T09:41:03.204Z,1.20
2018-10-01T09:43:30.575Z,1.60
2018-10-01T09:45:57.981Z,1.30
2018-10-01T09:48:25.373Z,2.15
2018-10-01T09:50:52.722Z,1.47
2018-10-01T09:53:20.830Z,1.50
2018-10-01T09:55:52.486Z,1.50
2018-10-01T09:58:20.000Z,1.85
2018-10-01T10:00:52.680Z,1.12
2018-10-01T10:03:20.435Z,1.00
2018-10-01T10:05:47.765Z,1.75
2018-10-01T10:08:15.224Z,1.20
2018-10-01T10:10:42.499Z,2.10
2018-10-01T10:13:09.807Z,1.15
2018-10-01T10:15:37.243Z,1.10
2018-10-01T10:18:04.596Z,1.10
2018-10-01T10:20:31.915Z,1.42
2018-10-01T10:22:59.146Z,1.27
2018-10-01T10:25:26.455Z,1.10
2018-10-01T10:27:53.746Z,1.00
2018-10-01T10:30:23.311Z,0.95
2018-10-01T10:32:50.625Z,0.90
2018-10-01T10:35:17.989Z,0.98
2018-10-01T10:37:45.302Z,0.85
2018-10-01T10:40:12.690Z,1.37
2018-10-01T10:42:39.987Z,1.20
2018-10-01T10:45:07.970Z,1.10
2018-10-01T10:47:35.379Z,1.20
2018-10-01T10:50:02.775Z,1.35
2018-10-01T10:52:30.094Z,1.00
2018-10-01T10:54:57.423Z,1.00
2018-10-01T10:57:24.925Z,1.27
2018-10-01T10:59:52.371Z,1.05
2018-10-01T11:02:19.930Z,1.00
2018-10-01T11:04:47.218Z,1.90
2018-10-01T11:07:14.613Z,1.30
2018-10-01T11:09:41.822Z,1.17
2018-10-01T11:12:09.099Z,1.00
2018-10-01T11:14:36.657Z,1.82
2018-10-01T11:17:03.811Z,0.90
2018-10-01T11:19:31.152Z,0.80
2018-10-01T11:21:58.538Z,0.98
2018-10-01T11:24:26.069Z,0.82
2018-10-01T11:26:54.448Z,0.88
2018-10-01T11:29:29.321Z,1.10
2018-10-01T11:31:56.770Z,1.07
2018-10-01T11:34:24.842Z,1.00
2018-10-01T11:36:52.311Z,1.00
2018-10-01T11:39:19.948Z,1.00
2018-10-01T11:41:47.224Z,1.02
2018-10-01T11:44:14.738Z,1.27
2018-10-01T11:46:42.006Z,1.10
2018-10-01T11:49:09.307Z,1.00
2018-10-01T11:51:36.669Z,1.42
2018-10-01T11:54:04.454Z,0.80
2018-10-01T11:56:32.639Z,0.70
2018-10-01T11:59:00.058Z,0.95
2018-10-01T12:01:27.480Z,1.02
2018-10-01T12:03:55.672Z,6.03
2018-10-01T12:06:22.972Z,4.17
2018-10-01T12:08:50.482Z,3.90
2018-10-01T12:11:18.083Z,6.05
2018-10-01T12:13:45.394Z,7.05
2018-10-01T12:16:13.888Z,7.08
2018-10-01T12:18:41.203Z,5.75
2018-10-01T12:21:08.684Z,2.10
2018-10-01T12:23:36.014Z,1.82
2018-10-01T12:26:03.422Z,1.72
2018-10-01T12:28:30.924Z,1.20
2018-10-01T12:30:58.322Z,1.40
2018-10-01T12:33:25.787Z,4.00
2018-10-01T12:35:53.129Z,5.55
2018-10-01T12:38:20.491Z,6.00
2018-10-01T12:40:51.270Z,4.37
2018-10-01T12:43:18.626Z,4.60
2018-10-01T12:45:45.963Z,6.47
2018-10-01T12:48:13.444Z,2.42
2018-10-01T12:50:40.770Z,3.27
2018-10-01T12:53:08.179Z,2.50
2018-10-01T12:55:35.464Z,1.65
2018-10-01T12:58:02.746Z,1.77
2018-10-01T13:00:30.078Z,1.67
2018-10-01T13:02:57.452Z,1.60
2018-10-01T13:05:24.771Z,1.40
2018-10-01T13:07:52.248Z,1.90
2018-10-01T13:10:20.996Z,1.85
2018-10-01T13:12:48.311Z,1.50
2018-10-01T13:15:15.621Z,2.20
2018-10-01T13:17:42.940Z,1.80
2018-10-01T13:20:10.290Z,1.90
2018-10-01T13:22:37.682Z,1.65
2018-10-01T13:25:05.322Z,1.45
2018-10-01T13:27:32.743Z,2.35
2018-10-01T13:30:00.168Z,1.95
2018-10-01T13:32:27.405Z,1.45
2018-10-01T13:34:54.714Z,1.00
2018-10-01T13:37:22.209Z,1.90
2018-10-01T13:39:49.577Z,1.32
2018-10-01T13:42:16.990Z,1.42
2018-10-01T13:44:44.224Z,0.90
2018-10-01T13:47:11.966Z,0.90
2018-10-01T13:49:39.543Z,1.00
2018-10-01T13:52:07.135Z,1.05
2018-10-01T13:54:34.437Z,1.30
2018-10-01T13:57:01.685Z,1.10
2018-10-01T13:59:29.057Z,1.00
2018-10-01T14:01:56.571Z,1.12
2018-10-01T14:04:23.907Z,1.00
2018-10-01T14:06:51.660Z,1.40
2018-10-01T14:09:19.010Z,1.10
2018-10-01T14:11:46.398Z,2.70
2018-10-01T14:14:14.381Z,1.62
2018-10-01T14:16:41.843Z,2.45
2018-10-01T14:19:09.207Z,3.55
2018-10-01T14:21:36.519Z,1.12
2018-10-01T14:24:03.869Z,1.45
2018-10-01T14:26:31.366Z,1.70
2018-10-01T14:28:58.686Z,2.80
2018-10-01T14:31:27.394Z,1.70
2018-10-01T14:33:54.744Z,1.60
2018-10-01T14:38:48.862Z,2.12
2018-10-01T14:41:16.866Z,2.00
2018-10-01T14:43:44.858Z,2.10
2018-10-01T14:46:12.368Z,2.22
2018-10-01T14:48:39.793Z,1.50
2018-10-01T14:51:07.839Z,1.98
2018-10-01T14:53:35.119Z,2.00
2018-10-01T14:56:09.178Z,1.45
2018-10-01T14:58:37.236Z,1.87
2018-10-01T15:01:04.588Z,2.85
2018-10-01T15:03:31.945Z,2.00
2018-10-01T15:05:59.359Z,1.87
2018-10-01T15:08:26.644Z,2.80
2018-10-01T15:10:54.062Z,1.80
2018-10-01T15:13:21.454Z,1.80
2018-10-01T15:15:48.949Z,1.72
2018-10-01T15:18:16.620Z,1.75
2018-10-01T15:20:44.018Z,1.65
2018-10-01T15:23:12.113Z,1.50
2018-10-01T15:25:39.460Z,1.60
2018-10-01T15:28:08.075Z,1.90
2018-10-01T15:30:35.732Z,1.90
2018-10-01T15:33:03.203Z,1.72
2018-10-01T15:35:30.654Z,1.35
2018-10-01T15:37:57.914Z,1.80
2018-10-01T15:40:25.253Z,1.92
2018-10-01T15:42:52.622Z,1.77
2018-10-01T15:45:19.935Z,1.45
2018-10-01T15:47:49.098Z,1.30
2018-10-01T15:50:16.553Z,1.30
2018-10-01T15:52:43.896Z,1.00
2018-10-01T15:55:11.196Z,1.10
2018-10-01T15:57:38.515Z,1.10
2018-10-01T16:00:05.986Z,1.47
2018-10-01T16:02:33.513Z,1.40
2018-10-01T16:05:00.865Z,1.15
2018-10-01T16:07:28.227Z,1.10
2018-10-01T16:09:55.594Z,1.12
2018-10-01T16:12:23.535Z,1.20
2018-10-01T16:14:51.134Z,1.20
2018-10-01T16:17:18.486Z,1.60
2018-10-01T16:19:45.947Z,1.20
2018-10-01T16:22:13.256Z,1.30
2018-10-01T16:24:40.763Z,1.40
2018-10-01T16:27:08.129Z,1.37
2018-10-01T16:29:36.387Z,1.20
2018-10-01T16:32:03.754Z,1.40
2018-10-01T16:34:31.042Z,1.30
2018-10-01T16:37:02.893Z,1.55
2018-10-01T16:39:32.577Z,1.07
2018-10-01T16:42:01.893Z,1.30
2018-10-01T16:44:29.527Z,1.27
2018-10-01T16:46:56.865Z,1.60
2018-10-01T16:49:24.421Z,1.50
2018-10-01T16:51:51.752Z,1.60
2018-10-01T16:54:19.263Z,1.85
2018-10-01T16:56:46.690Z,2.15
2018-10-01T16:59:14.623Z,3.15
2018-10-01T17:01:42.935Z,2.45
2018-10-01T17:04:21.156Z,2.50
2018-10-01T17:06:48.534Z,1.77
2018-10-01T17:09:15.918Z,1.85
2018-10-01T17:11:43.310Z,1.60
2018-10-01T17:14:10.827Z,1.80
2018-10-01T17:16:38.230Z,2.70
2018-10-01T17:19:06.169Z,1.70
2018-10-01T17:21:34.974Z,2.20
2018-10-01T17:24:02.359Z,1.62
2018-10-01T17:26:29.746Z,1.85
2018-10-01T17:28:57.384Z,1.27
2018-10-01T17:31:24.831Z,2.00
2018-10-01T17:33:52.205Z,1.60
2018-10-01T17:36:19.611Z,1.50
2018-10-01T17:38:48.229Z,1.62
2018-10-01T17:41:16.539Z,1.42
2018-10-01T17:43:43.910Z,1.75
2018-10-01T17:46:11.328Z,1.55
2018-10-01T17:48:38.739Z,1.60
2018-10-01T17:51:06.244Z,1.40
2018-10-01T17:53:36.026Z,1.35
2018-10-01T17:56:04.104Z,1.50
2018-10-01T17:58:36.030Z,1.90
2018-10-01T18:01:04.165Z,1.82
2018-10-01T18:03:35.620Z,2.37
2018-10-01T18:06:04.462Z,1.80
2018-10-01T18:08:32.387Z,2.00
2018-10-01T18:11:01.734Z,1.70
2018-10-01T18:13:29.891Z,2.10
2018-10-01T18:15:57.307Z,1.98
2018-10-01T18:18:25.750Z,2.05
2018-10-01T18:20:53.493Z,1.87
2018-10-01T18:23:21.071Z,1.90
2018-10-01T18:25:48.784Z,1.85
2018-10-01T18:30:47.918Z,1.90
2018-10-01T18:33:15.862Z,2.15
2018-10-01T18:35:43.387Z,2.87
2018-10-01T18:38:14.714Z,1.80
2018-10-01T18:40:42.140Z,1.90
2018-10-01T18:43:09.480Z,2.40
2018-10-01T18:45:37.599Z,1.82
2018-10-01T18:48:05.808Z,1.65
2018-10-01T18:50:33.236Z,2.55
2018-10-01T18:53:05.135Z,1.82
2018-10-01T18:55:35.101Z,2.35
2018-10-01T18:58:06.991Z,2.05
2018-10-01T19:00:40.944Z,1.80
2018-10-01T19:03:12.675Z,1.87
2018-10-01T19:05:45.423Z,1.70
2018-10-01T19:08:14.253Z,1.62
2018-10-01T19:10:41.868Z,1.70
2018-10-01T19:13:09.250Z,1.70
2018-10-01T19:15:37.572Z,1.75
2018-10-01T19:18:06.539Z,1.70
2018-10-01T19:20:37.215Z,1.60
2018-10-01T19:23:05.255Z,2.45
2018-10-01T19:25:32.847Z,2.67
2018-10-01T19:28:01.704Z,1.55
2018-10-01T19:30:29.348Z,2.10
2018-10-01T19:33:01.337Z,1.60
2018-10-01T19:35:29.050Z,1.50
2018-10-01T19:37:58.019Z,1.60
2018-10-01T19:40:27.035Z,1.70
2018-10-01T19:42:54.621Z,1.90
2018-10-01T19:45:23.209Z,1.55
2018-10-01T19:47:50.769Z,1.77
2018-10-01T19:50:18.332Z,1.90
2018-10-01T19:52:46.318Z,1.70
2018-10-01T19:57:54.263Z,1.87
2018-10-01T20:00:27.320Z,2.92
2018-10-01T20:02:55.738Z,1.90
2018-10-01T20:05:23.414Z,1.90
2018-10-01T20:07:53.876Z,1.72
2018-10-01T20:10:27.501Z,1.90
2018-10-01T20:12:54.952Z,2.10
2018-10-01T20:15:22.595Z,2.30
2018-10-01T20:17:51.661Z,3.58
2018-10-01T20:20:19.722Z,4.15
2018-10-01T20:22:47.148Z,3.05
2018-10-01T20:25:14.728Z,2.33
2018-10-01T20:27:43.200Z,2.60
2018-10-01T20:30:10.709Z,2.45
2018-10-01T20:32:40.651Z,2.30
2018-10-01T20:35:09.864Z,2.15
2018-10-01T20:37:38.912Z,2.98
2018-10-01T20:40:07.856Z,2.22
2018-10-01T20:42:37.359Z,1.77
2018-10-01T20:45:06.528Z,2.55
2018-10-01T20:47:38.303Z,2.25
2018-10-01T20:50:05.857Z,1.70
2018-10-01T20:52:33.866Z,1.95
2018-10-01T20:55:03.285Z,2.08
2018-10-01T20:57:31.219Z,2.00
2018-10-01T20:59:59.055Z,1.98
2018-10-01T21:02:29.279Z,2.30
2018-10-01T21:05:01.293Z,1.65
2018-10-01T21:07:29.674Z,2.12
2018-10-01T21:10:05.743Z,2.15
2018-10-01T21:12:33.197Z,2.62
2018-10-01T21:15:01.862Z,2.47
2018-10-01T21:17:29.576Z,2.62
2018-10-01T21:20:04.415Z,2.60
2018-10-01T21:22:36.941Z,2.47
2018-10-01T21:25:05.413Z,2.50
2018-10-01T21:27:32.894Z,2.52
2018-10-01T21:30:01.501Z,2.10
2018-10-01T21:32:29.041Z,2.10
2018-10-01T21:34:57.420Z,2.50
2018-10-01T21:37:25.113Z,2.22
2018-10-01T21:39:54.487Z,2.92
2018-10-01T21:44:49.250Z,2.52
2018-10-01T21:47:17.346Z,1.92
2018-10-01T21:49:54.318Z,2.35
2018-10-01T21:52:27.745Z,3.67
2018-10-01T21:54:56.613Z,2.70
2018-10-01T21:57:27.704Z,2.17
2018-10-01T22:00:02.053Z,2.60
2018-10-01T22:02:29.446Z,1.77
2018-10-01T22:04:57.350Z,2.50
2018-10-01T22:09:51.816Z,2.55
2018-10-01T22:12:22.297Z,2.60
2018-10-01T22:14:50.520Z,2.67
2018-10-01T22:17:18.897Z,2.15
2018-10-01T22:19:46.236Z,2.02
2018-10-01T22:22:14.059Z,2.20
2018-10-01T22:24:42.842Z,2.20
2018-10-01T22:27:10.186Z,2.27
2018-10-01T22:29:38.348Z,1.98
2018-10-01T22:32:06.080Z,1.85
2018-10-01T22:34:34.271Z,2.58
2018-10-01T22:37:08.346Z,2.02
2018-10-01T22:39:36.471Z,2.00
2018-10-01T22:42:04.328Z,2.40
2018-10-01T22:44:31.665Z,2.30
2018-10-01T22:46:59.300Z,1.75
2018-10-01T22:49:31.581Z,2.00
2018-10-01T22:52:04.108Z,2.30
2018-10-01T22:54:34.544Z,2.45
2018-10-01T22:59:35.118Z,2.17
2018-10-01T23:04:29.341Z,2.05
2018-10-01T23:07:00.952Z,2.92
2018-10-01T23:09:42.836Z,2.45
2018-10-01T23:12:11.739Z,3.00
2018-10-01T23:14:47.572Z,3.35
2018-10-01T23:17:19.529Z,4.30
2018-10-01T23:19:47.670Z,3.40
2018-10-01T23:22:19.459Z,3.47
2018-10-01T23:24:46.928Z,3.50
2018-10-01T23:27:19.776Z,3.62
2018-10-01T23:29:47.198Z,3.15
2018-10-01T23:32:15.911Z,3.55
2018-10-01T23:34:43.912Z,3.08
2018-10-01T23:37:12.755Z,3.00
2018-10-01T23:44:48.764Z,2.90
2018-10-01T23:47:16.448Z,2.27
2018-10-01T23:49:44.737Z,2.60
2018-10-01T23:52:12.351Z,2.35
2018-10-01T23:54:39.833Z,2.72
2018-10-01T23:57:10.257Z,2.60
2018-10-01T23:59:38.984Z,2.62
